Time,TemperatureF,DewpointF,PressureIn,WindDirection,WindDirectionDegrees,WindSpeedMPH,WindSpeedGustMPH,Humidity,HourlyPrecipIn,Conditions,Clouds,dailyrainin,SoftwareType,DateUTC
2013-04-23 00:12:00,37.6,31.0,30.41,SSW,200,0.0,-999.0,78,-99.99,,,0.00,weatherlink.com 1.10,2013-04-23 07:12:00,
2013-04-23 00:27:00,37.3,31.0,30.41,SSW,200,0.0,-999.0,79,-99.99,,,0.00,weatherlink.com 1.10,2013-04-23 07:27:00,
2013-04-23 00:42:00,37.0,31.0,30.41,SSW,200,0.0,-999.0,80,-99.99,,,0.00,weatherlink.com 1.10,2013-04-23 07:42:00,
2013-04-23 00:57:00,36.5,31.0,30.41,SSW,200,0.0,-999.0,81,-99.99,,,0.00,weatherlink.com 1.10,2013-04-23 07:57:00,
2013-04-23 01:12:00,35.9,31.0,30.42,SSW,200,0.0,-999.0,81,-99.99,,,0.00,weatherlink.com 1.10,2013-04-23 08:12:00,
2013-04-23 01:27:00,35.6,30.0,30.42,SSW,200,0.0,-999.0,81,-99.99,,,0.00,weatherlink.com 1.10,2013-04-23 08:27:00,
2013-04-23 01:42:00,35.1,30.0,30.42,SSW,200,0.0,-999.0,83,-99.99,,,0.00,weatherlink.com 1.10,2013-04-23 08:42:00,
2013-04-23 01:57:00,34.8,30.0,30.42,SSW,200,0.0,-999.0,84,-99.99,,,0.00,weatherlink.com 1.10,2013-04-23 08:57:00,
2013-04-23 02:12:00,34.1,30.0,30.41,SSW,200,0.0,-999.0,83,-99.99,,,0.00,weatherlink.com 1.10,2013-04-23 09:12:00,
2013-04-23 02:27:00,33.9,29.0,30.41,SSW,200,0.0,-999.0,83,-99.99,,,0.00,weatherlink.com 1.10,2013-04-23 09:27:00,
2013-04-23 02:42:00,33.8,30.0,30.41,SSW,200,0.0,-999.0,85,-99.99,,,0.00,weatherlink.com 1.10,2013-04-23 09:42:00,
2013-04-23 02:57:00,33.4,29.0,30.41,SSW,200,0.0,-999.0,84,-99.99,,,0.00,weatherlink.com 1.10,2013-04-23 09:57:00,
2013-04-23 03:12:00,33.2,30.0,30.41,SSW,200,0.0,-999.0,86,-99.99,,,0.00,weatherlink.com 1.10,2013-04-23 10:12:00,
2013-04-23 03:27:00,32.9,29.0,30.42,SSW,200,0.0,-999.0,86,-99.99,,,0.00,weatherlink.com 1.10,2013-04-23 10:27:00,
2013-04-23 03:42:00,32.3,29.0,30.42,SSW,200,0.0,-999.0,86,-99.99,,,0.00,weatherlink.com 1.10,2013-04-23 10:42:00,
2013-04-23 03:58:00,31.9,28.0,30.42,SSW,200,0.0,-999.0,86,-99.99,,,0.00,weatherlink.com 1.10,2013-04-23 10:58:00,
2013-04-23 04:13:00,31.8,28.0,30.42,SSW,200,0.0,-999.0,87,-99.99,,,0.00,weatherlink.com 1.10,2013-04-23 11:13:00,
2013-04-23 04:28:00,31.8,28.0,30.42,SSW,200,0.0,-999.0,87,-99.99,,,0.00,weatherlink.com 1.10,2013-04-23 11:28:00,
2013-04-23 04:43:00,31.8,29.0,30.42,SSW,200,0.0,-999.0,88,-99.99,,,0.00,weatherlink.com 1.10,2013-04-23 11:43:00,
2013-04-23 04:58:00,31.9,29.0,30.42,SSW,200,0.0,-999.0,88,-99.99,,,0.00,weatherlink.com 1.10,2013-04-23 11:58:00,
2013-04-23 05:13:00,31.4,28.0,30.41,SSW,200,1.0,-999.0,88,-99.99,,,0.00,weatherlink.com 1.10,2013-04-23 12:13:00,
2013-04-23 05:28:00,30.8,28.0,30.42,SSW,200,0.0,-999.0,88,-99.99,,,0.00,weatherlink.com 1.10,2013-04-23 12:28:00,
2013-04-23 05:43:00,30.6,28.0,30.42,SSW,200,0.0,-999.0,89,-99.99,,,0.00,weatherlink.com 1.10,2013-04-23 12:43:00,
2013-04-23 05:58:00,30.4,28.0,30.42,SSW,200,0.0,-999.0,89,-99.99,,,0.00,weatherlink.com 1.10,2013-04-23 12:58:00,
2013-04-23 06:13:00,30.8,28.0,30.42,SSW,200,0.0,-999.0,89,-99.99,,,0.00,weatherlink.com 1.10,2013-04-23 13:13:00,
2013-04-23 06:28:00,31.3,29.0,30.42,SSW,200,0.0,-999.0,89,-99.99,,,0.00,weatherlink.com 1.10,2013-04-23 13:28:00,
2013-04-23 06:43:00,31.5,29.0,30.42,SSW,200,0.0,-999.0,89,-99.99,,,0.00,weatherlink.com 1.10,2013-04-23 13:43:00,
2013-04-23 06:58:00,31.8,29.0,30.42,SSW,200,0.0,-999.0,89,-99.99,,,0.00,weatherlink.com 1.10,2013-04-23 13:58:00,
2013-04-23 07:13:00,32.3,30.0,30.42,SSW,200,0.0,-999.0,89,-99.99,,,0.00,weatherlink.com 1.10,2013-04-23 14:13:00,
2013-04-23 07:28:00,32.9,30.0,30.41,SSW,200,0.0,-999.0,87,-99.99,,,0.00,weatherlink.com 1.10,2013-04-23 14:28:00,
2013-04-23 07:43:00,34.1,30.0,30.41,SSW,200,0.0,-999.0,85,-99.99,,,0.00,weatherlink.com 1.10,2013-04-23 14:43:00,
2013-04-23 07:58:00,35.4,31.0,30.40,SSW,200,0.0,-999.0,83,-99.99,,,0.00,weatherlink.com 1.10,2013-04-23 14:58:00,
2013-04-23 08:13:00,36.5,31.0,30.39,SSW,200,0.0,-999.0,81,-99.99,,,0.00,weatherlink.com 1.10,2013-04-23 15:13:00,
2013-04-23 08:28:00,37.8,31.0,30.39,SSW,200,0.0,-999.0,77,-99.99,,,0.00,weatherlink.com 1.10,2013-04-23 15:28:00,
2013-04-23 08:43:00,39.3,31.0,30.38,SSW,200,0.0,-999.0,73,-99.99,,,0.00,weatherlink.com 1.10,2013-04-23 15:43:00,
2013-04-23 08:58:00,40.8,31.0,30.38,SSW,200,3.0,-999.0,69,-99.99,,,0.00,weatherlink.com 1.10,2013-04-23 15:58:00,
2013-04-23 09:13:00,41.4,32.0,30.37,SSW,200,2.0,-999.0,68,-99.99,,,0.00,weatherlink.com 1.10,2013-04-23 16:13:00,
2013-04-23 09:28:00,43.1,32.0,30.36,SSW,200,1.0,-999.0,64,-99.99,,,0.00,weatherlink.com 1.10,2013-04-23 16:28:00,
2013-04-23 09:43:00,44.4,32.0,30.36,SSW,200,2.0,-999.0,62,-99.99,,,0.00,weatherlink.com 1.10,2013-04-23 16:43:00,
2013-04-23 09:58:00,45.7,32.0,30.35,SSW,200,0.0,-999.0,60,-99.99,,,0.00,weatherlink.com 1.10,2013-04-23 16:58:00,
2013-04-23 10:13:00,46.5,31.0,30.35,SW,220,0.0,-999.0,56,-99.99,,,0.00,weatherlink.com 1.10,2013-04-23 17:13:00,
2013-04-23 10:28:00,47.4,32.0,30.34,SW,220,1.0,-999.0,55,-99.99,,,0.00,weatherlink.com 1.10,2013-04-23 17:28:00,
2013-04-23 10:43:00,47.9,31.0,30.34,SW,220,0.0,-999.0,52,-99.99,,,0.00,weatherlink.com 1.10,2013-04-23 17:43:00,
2013-04-23 10:58:00,49.4,32.0,30.34,SW,220,1.0,-999.0,51,-99.99,,,0.00,weatherlink.com 1.10,2013-04-23 17:58:00,
2013-04-23 11:13:00,49.6,31.0,30.33,SW,220,3.0,-999.0,49,-99.99,,,0.00,weatherlink.com 1.10,2013-04-23 18:13:00,
2013-04-23 11:28:00,50.1,31.0,30.32,SW,220,1.0,-999.0,48,-99.99,,,0.00,weatherlink.com 1.10,2013-04-23 18:28:00,
2013-04-23 11:43:00,51.0,32.0,30.33,SW,220,0.0,-999.0,49,-99.99,,,0.00,weatherlink.com 1.10,2013-04-23 18:43:00,
2013-04-23 11:58:00,51.0,30.0,30.32,SW,220,0.0,-999.0,44,-99.99,,,0.00,weatherlink.com 1.10,2013-04-23 18:58:00,
2013-04-23 12:13:00,51.5,28.0,30.30,SW,220,1.0,-999.0,40,-99.99,,,0.00,weatherlink.com 1.10,2013-04-23 19:13:00,
2013-04-23 12:28:00,52.3,28.0,30.30,SW,220,1.0,-999.0,39,-99.99,,,0.00,weatherlink.com 1.10,2013-04-23 19:28:00,
2013-04-23 12:43:00,52.9,30.0,30.29,SW,220,2.0,-999.0,41,-99.99,,,0.01,weatherlink.com 1.10,2013-04-23 19:43:00,
2013-04-23 12:58:00,53.8,25.0,30.29,SW,220,0.0,-999.0,33,-99.99,,,0.01,weatherlink.com 1.10,2013-04-23 19:58:00,
2013-04-23 13:13:00,54.1,21.0,30.29,SW,220,1.0,-999.0,27,-99.99,,,0.01,weatherlink.com 1.10,2013-04-23 20:13:00,
2013-04-23 13:28:00,54.7,27.0,30.28,SSW,196,2.0,-999.0,34,-99.99,,,0.01,weatherlink.com 1.10,2013-04-23 20:28:00,
2013-04-23 13:43:00,55.0,21.0,30.27,SSW,196,0.0,-999.0,27,-99.99,,,0.01,weatherlink.com 1.10,2013-04-23 20:43:00,
2013-04-23 13:58:00,56.3,24.0,30.27,SSW,196,0.0,-999.0,29,-99.99,,,0.01,weatherlink.com 1.10,2013-04-23 20:58:00,
2013-04-23 14:13:00,57.4,26.0,30.26,SSW,196,2.0,-999.0,30,-99.99,,,0.01,weatherlink.com 1.10,2013-04-23 21:13:00,
2013-04-23 14:28:00,58.2,27.0,30.26,SSW,203,0.0,-999.0,30,-99.99,,,0.01,weatherlink.com 1.10,2013-04-23 21:28:00,
2013-04-23 14:43:00,58.3,25.0,30.25,South,189,2.0,-999.0,28,-99.99,,,0.01,weatherlink.com 1.10,2013-04-23 21:43:00,
2013-04-23 14:59:00,59.3,25.0,30.24,West,273,1.0,-999.0,27,-99.99,,,0.01,weatherlink.com 1.10,2013-04-23 21:59:00,
2013-04-23 15:14:00,59.3,25.0,30.24,SSW,203,2.0,-999.0,27,-99.99,,,0.01,weatherlink.com 1.10,2013-04-23 22:14:00,
2013-04-23 15:29:00,60.1,28.0,30.23,SSW,213,4.0,-999.0,29,-99.99,,,0.01,weatherlink.com 1.10,2013-04-23 22:29:00,
2013-04-23 15:44:00,60.8,25.0,30.23,West,264,2.0,-999.0,25,-99.99,,,0.01,weatherlink.com 1.10,2013-04-23 22:44:00,
2013-04-23 15:59:00,60.7,25.0,30.22,SSW,212,4.0,-999.0,25,-99.99,,,0.01,weatherlink.com 1.10,2013-04-23 22:59:00,
2013-04-23 16:14:00,60.9,25.0,30.21,SSW,209,2.0,-999.0,25,-99.99,,,0.01,weatherlink.com 1.10,2013-04-23 23:14:00,
2013-04-23 16:29:00,60.7,24.0,30.21,SSW,209,3.0,-999.0,24,-99.99,,,0.01,weatherlink.com 1.10,2013-04-23 23:29:00,
2013-04-23 16:44:00,60.3,27.0,30.20,SSW,209,3.0,-999.0,28,-99.99,,,0.01,weatherlink.com 1.10,2013-04-23 23:44:00,
2013-04-23 16:59:00,60.6,23.0,30.20,South,181,3.0,-999.0,24,-99.99,,,0.01,weatherlink.com 1.10,2013-04-23 23:59:00,
2013-04-23 17:14:00,60.9,23.0,30.20,South,179,0.0,-999.0,23,-99.99,,,0.01,weatherlink.com 1.10,2013-04-24 00:14:00,
2013-04-23 17:29:00,61.1,25.0,30.20,South,179,2.0,-999.0,25,-99.99,,,0.01,weatherlink.com 1.10,2013-04-24 00:29:00,
2013-04-23 17:44:00,60.8,28.0,30.20,South,179,1.0,-999.0,29,-99.99,,,0.01,weatherlink.com 1.10,2013-04-24 00:44:00,
2013-04-23 17:59:00,58.9,30.0,30.20,South,179,0.0,-999.0,34,-99.99,,,0.01,weatherlink.com 1.10,2013-04-24 00:59:00,
2013-04-23 18:14:00,58.0,30.0,30.20,South,179,0.0,-999.0,35,-99.99,,,0.01,weatherlink.com 1.10,2013-04-24 01:14:00,
2013-04-23 18:29:00,57.2,33.0,30.21,South,179,1.0,-999.0,40,-99.99,,,0.01,weatherlink.com 1.10,2013-04-24 01:29:00,
2013-04-23 18:44:00,55.2,30.0,30.20,South,179,0.0,-999.0,39,-99.99,,,0.01,weatherlink.com 1.10,2013-04-24 01:44:00,
2013-04-23 18:59:00,54.2,33.0,30.21,South,179,0.0,-999.0,45,-99.99,,,0.01,weatherlink.com 1.10,2013-04-24 01:59:00,
2013-04-23 19:14:00,53.2,33.0,30.21,South,179,0.0,-999.0,47,-99.99,,,0.01,weatherlink.com 1.10,2013-04-24 02:14:00,
2013-04-23 19:44:00,51.0,33.0,30.22,South,179,0.0,-999.0,51,-99.99,,,0.00,weatherlink.com 1.10,2013-04-24 02:44:00,
2013-04-23 19:59:00,50.2,35.0,30.23,South,179,0.0,-999.0,56,-99.99,,,0.00,weatherlink.com 1.10,2013-04-24 02:59:00,
2013-04-23 20:29:00,48.1,35.0,30.24,South,179,0.0,-999.0,60,-99.99,,,0.00,weatherlink.com 1.10,2013-04-24 03:29:00,
2013-04-23 20:44:00,47.2,35.0,30.24,South,179,0.0,-999.0,62,-99.99,,,0.00,weatherlink.com 1.10,2013-04-24 03:44:00,
2013-04-23 20:59:00,46.4,35.0,30.25,South,179,0.0,-999.0,65,-99.99,,,0.00,weatherlink.com 1.10,2013-04-24 03:59:00,
2013-04-23 21:14:00,45.5,34.0,30.25,South,179,0.0,-999.0,65,-99.99,,,0.00,weatherlink.com 1.10,2013-04-24 04:14:00,
2013-04-23 21:29:00,44.5,34.0,30.25,South,179,0.0,-999.0,68,-99.99,,,0.00,weatherlink.com 1.10,2013-04-24 04:29:00,
2013-04-23 21:44:00,43.8,35.0,30.26,South,179,0.0,-999.0,71,-99.99,,,0.00,weatherlink.com 1.10,2013-04-24 04:44:00,
2013-04-23 21:59:00,43.1,35.0,30.26,South,179,0.0,-999.0,72,-99.99,,,0.00,weatherlink.com 1.10,2013-04-24 04:59:00,
2013-04-23 22:14:00,42.5,34.0,30.26,South,179,0.0,-999.0,73,-99.99,,,0.00,weatherlink.com 1.10,2013-04-24 05:14:00,
2013-04-23 22:30:00,41.9,34.0,30.27,South,179,0.0,-999.0,74,-99.99,,,0.00,weatherlink.com 1.10,2013-04-24 05:30:00,
2013-04-23 22:45:00,41.6,34.0,30.27,South,179,0.0,-999.0,75,-99.99,,,0.00,weatherlink.com 1.10,2013-04-24 05:45:00,
2013-04-23 23:00:00,40.9,34.0,30.27,South,179,0.0,-999.0,76,-99.99,,,0.00,weatherlink.com 1.10,2013-04-24 06:00:00,
2013-04-23 23:15:00,40.3,34.0,30.28,South,179,0.0,-999.0,77,-99.99,,,0.00,weatherlink.com 1.10,2013-04-24 06:15:00,
2013-04-23 23:30:00,39.9,34.0,30.29,South,179,0.0,-999.0,78,-99.99,,,0.00,weatherlink.com 1.10,2013-04-24 06:30:00,
2013-04-23 23:45:00,39.7,33.0,30.29,South,179,0.0,-999.0,78,-99.99,,,0.00,weatherlink.com 1.10,2013-04-24 06:45:00,